Epic Balta — 9VED8 — position and weather

sailwx.info

Track history (hours):
 
Tides and Currents Weather Stations Pressure Air Temp Water Temp Dewpoint Dewpoint Depression Visibility Wind Speed Wind Dir Waves Ship Positions

Epic Balta

Last reported at 2015-May-30 10:25 UTC. Time now 2015-May-30 10:37 UTC.
Position N 29°44' W 095°12'.

Length 100 m; draft 4 m.

Type: Tanker. MMSI: 565525000.

Date/timePositionNaut miles runAvg speedWind from/ knotsBaromVisibWave heightAir tempDewpointWater temp
2015-May-30 10:25N 29°44' W 095°12'0 0.0
2015-May-30 09:31N 29°44' W 095°12'0 0.0
2015-May-30 08:31N 29°44' W 095°12'0 0.0
2015-May-30 07:31N 29°44' W 095°12'0 0.0
2015-May-30 06:31N 29°44' W 095°12'0 0.0
2015-May-30 05:31N 29°44' W 095°12'0 0.0
2015-May-30 04:31N 29°44' W 095°12'0 0.0
2015-May-30 03:31N 29°44' W 095°12'0 0.0
2015-May-30 02:22N 29°44' W 095°12'0 0.0
2015-May-30 01:31N 29°44' W 095°12'0 0.0
2015-May-30 00:31N 29°44' W 095°12'0 0.0
2015-May-29 23:31N 29°44' W 095°12'0 0.0
2015-May-29 22:31N 29°44' W 095°12'0 0.0
2015-May-29 21:31N 29°44' W 095°12'0 0.0
2015-May-29 20:31N 29°44' W 095°12'0 0.0
2015-May-29 19:31N 29°44' W 095°12'0 0.0
2015-May-29 18:28N 29°44' W 095°12'0 0.0
2015-May-29 17:31N 29°44' W 095°12'0 0.0
2015-May-29 16:31N 29°44' W 095°12'0 0.0
2015-May-29 15:31N 29°44' W 095°12'0 0.0
2015-May-29 14:31N 29°44' W 095°12'0 0.0
2015-May-29 13:31N 29°44' W 095°12'0 0.0
2015-May-29 12:31N 29°44' W 095°12'0 0.0
2015-May-29 11:31N 29°44' W 095°12'0 0.0
2015-May-29 10:31N 29°44' W 095°12'0 0.0
2015-May-29 09:31N 29°44' W 095°12'0 0.0
2015-May-29 08:31N 29°44' W 095°12'0 0.0
2015-May-29 07:31N 29°44' W 095°12'0 0.0
2015-May-29 06:31N 29°44' W 095°12'0 0.0
2015-May-29 05:31N 29°44' W 095°12'0 0.0
2015-May-29 04:31N 29°44' W 095°12'0 0.0
2015-May-29 03:28N 29°44' W 095°12'0 0.0
2015-May-29 02:31N 29°44' W 095°12'0 0.0
2015-May-29 01:31N 29°44' W 095°12'0 0.0
2015-May-29 00:28N 29°44' W 095°12'0 0.0
2015-May-28 23:31N 29°44' W 095°12'0 0.0
2015-May-28 22:31N 29°44' W 095°12'0 0.0
2015-May-28 21:31N 29°44' W 095°12'0 0.0
2015-May-28 20:33N 29°44' W 095°12'3 3.0
2015-May-28 19:33N 29°44' W 095°09'5 5.3
2015-May-28 18:33N 29°44' W 095°03'9 8.7
2015-May-28 17:33N 29°37' W 094°57'1413.6
2015-May-28 16:33N 29°25' W 094°50'15 1.3
2015-May-28 05:25N 29°12' W 094°41'  
Track history (hours):
 
Tides and Currents Weather Stations Pressure Air Temp Water Temp Dewpoint Dewpoint Depression Visibility Wind Speed Wind Dir Waves Ship Positions

Epic Balta

Last reported at 2015-May-30 10:25 UTC. Time now 2015-May-30 10:37 UTC.
Position N 29°44' W 095°12'.

Length 100 m; draft 4 m.

Type: Tanker. MMSI: 565525000.

Date/timePositionNaut miles runAvg speedWind from/ knotsBaromVisibWave heightAir tempDewpointWater temp
2015-May-30 10:25N 29°44' W 095°12'0 0.0
2015-May-30 09:31N 29°44' W 095°12'0 0.0
2015-May-30 08:31N 29°44' W 095°12'0 0.0
2015-May-30 07:31N 29°44' W 095°12'0 0.0
2015-May-30 06:31N 29°44' W 095°12'0 0.0
2015-May-30 05:31N 29°44' W 095°12'0 0.0
2015-May-30 04:31N 29°44' W 095°12'0 0.0
2015-May-30 03:31N 29°44' W 095°12'0 0.0
2015-May-30 02:22N 29°44' W 095°12'0 0.0
2015-May-30 01:31N 29°44' W 095°12'0 0.0
2015-May-30 00:31N 29°44' W 095°12'0 0.0
2015-May-29 23:31N 29°44' W 095°12'0 0.0
2015-May-29 22:31N 29°44' W 095°12'0 0.0
2015-May-29 21:31N 29°44' W 095°12'0 0.0
2015-May-29 20:31N 29°44' W 095°12'0 0.0
2015-May-29 19:31N 29°44' W 095°12'0 0.0
2015-May-29 18:28N 29°44' W 095°12'0 0.0
2015-May-29 17:31N 29°44' W 095°12'0 0.0
2015-May-29 16:31N 29°44' W 095°12'0 0.0
2015-May-29 15:31N 29°44' W 095°12'0 0.0
2015-May-29 14:31N 29°44' W 095°12'0 0.0
2015-May-29 13:31N 29°44' W 095°12'0 0.0
2015-May-29 12:31N 29°44' W 095°12'0 0.0
2015-May-29 11:31N 29°44' W 095°12'0 0.0
2015-May-29 10:31N 29°44' W 095°12'0 0.0
2015-May-29 09:31N 29°44' W 095°12'0 0.0
2015-May-29 08:31N 29°44' W 095°12'0 0.0
2015-May-29 07:31N 29°44' W 095°12'0 0.0
2015-May-29 06:31N 29°44' W 095°12'0 0.0
2015-May-29 05:31N 29°44' W 095°12'0 0.0
2015-May-29 04:31N 29°44' W 095°12'0 0.0
2015-May-29 03:28N 29°44' W 095°12'0 0.0
2015-May-29 02:31N 29°44' W 095°12'0 0.0
2015-May-29 01:31N 29°44' W 095°12'0 0.0
2015-May-29 00:28N 29°44' W 095°12'0 0.0
2015-May-28 23:31N 29°44' W 095°12'0 0.0
2015-May-28 22:31N 29°44' W 095°12'0 0.0
2015-May-28 21:31N 29°44' W 095°12'0 0.0
2015-May-28 20:33N 29°44' W 095°12'3 3.0
2015-May-28 19:33N 29°44' W 095°09'5 5.3
2015-May-28 18:33N 29°44' W 095°03'9 8.7
2015-May-28 17:33N 29°37' W 094°57'1413.6
2015-May-28 16:33N 29°25' W 094°50'15 1.3
2015-May-28 05:25N 29°12' W 094°41'  

Dump ship's entire track history